sensor_id;sensor_type;location;lat;lon;timestamp;pressure;altitude;pressure_sealevel;temperature;humidity
10712;BME280;5407;51.234;6.804;2022-07-23T00:01:55;101276.38;;;24.79;54.08
10712;BME280;5407;51.234;6.804;2022-07-23T00:04:22;101279.06;;;24.82;53.85
10712;BME280;5407;51.234;6.804;2022-07-23T00:06:49;101282.06;;;24.68;53.75
10712;BME280;5407;51.234;6.804;2022-07-23T00:09:16;101279.56;;;24.54;54.55
10712;BME280;5407;51.234;6.804;2022-07-23T00:11:43;101275.19;;;24.57;54.47
10712;BME280;5407;51.234;6.804;2022-07-23T00:14:10;101285.44;;;24.56;55.35
10712;BME280;5407;51.234;6.804;2022-07-23T00:16:38;101293.50;;;24.44;55.65
10712;BME280;5407;51.234;6.804;2022-07-23T00:19:05;101292.91;;;24.33;55.72
10712;BME280;5407;51.234;6.804;2022-07-23T00:21:32;101295.16;;;24.41;55.75
10712;BME280;5407;51.234;6.804;2022-07-23T00:23:59;101276.88;;;24.51;55.62
10712;BME280;5407;51.234;6.804;2022-07-23T00:26:26;101275.47;;;24.62;55.10
10712;BME280;5407;51.234;6.804;2022-07-23T00:28:52;101272.16;;;24.51;55.48
10712;BME280;5407;51.234;6.804;2022-07-23T00:31:19;101273.25;;;24.54;55.64
10712;BME280;5407;51.234;6.804;2022-07-23T00:33:48;101269.78;;;24.50;55.38
10712;BME280;5407;51.234;6.804;2022-07-23T00:36:15;101263.72;;;24.35;55.50
10712;BME280;5407;51.234;6.804;2022-07-23T00:38:42;101266.53;;;24.32;55.45
10712;BME280;5407;51.234;6.804;2022-07-23T00:41:09;101269.47;;;24.21;56.20
10712;BME280;5407;51.234;6.804;2022-07-23T00:43:36;101271.38;;;24.24;56.24
10712;BME280;5407;51.234;6.804;2022-07-23T00:46:03;101266.72;;;24.44;55.51
10712;BME280;5407;51.234;6.804;2022-07-23T00:48:30;101264.91;;;24.34;55.93
10712;BME280;5407;51.234;6.804;2022-07-23T00:50:59;101273.50;;;24.40;55.82
10712;BME280;5407;51.234;6.804;2022-07-23T00:53:25;101268.41;;;24.38;56.00
10712;BME280;5407;51.234;6.804;2022-07-23T00:55:53;101275.56;;;24.32;56.13
10712;BME280;5407;51.234;6.804;2022-07-23T00:58:20;101280.56;;;24.18;56.54
10712;BME280;5407;51.234;6.804;2022-07-23T01:00:47;101283.84;;;24.09;56.98
10712;BME280;5407;51.234;6.804;2022-07-23T01:03:14;101282.28;;;24.08;57.08
10712;BME280;5407;51.234;6.804;2022-07-23T01:05:41;101282.22;;;24.12;57.00
10712;BME280;5407;51.234;6.804;2022-07-23T01:08:09;101288.78;;;23.95;57.44
10712;BME280;5407;51.234;6.804;2022-07-23T01:10:36;101288.13;;;23.87;57.52
10712;BME280;5407;51.234;6.804;2022-07-23T01:13:05;101292.03;;;23.90;57.28
10712;BME280;5407;51.234;6.804;2022-07-23T01:15:33;101285.53;;;24.03;56.50
10712;BME280;5407;51.234;6.804;2022-07-23T01:18:00;101285.69;;;23.93;56.91
10712;BME280;5407;51.234;6.804;2022-07-23T01:20:29;101281.91;;;23.80;57.50
10712;BME280;5407;51.234;6.804;2022-07-23T01:22:58;101285.28;;;23.65;58.10
10712;BME280;5407;51.234;6.804;2022-07-23T01:25:25;101280.63;;;23.58;58.04
10712;BME280;5407;51.234;6.804;2022-07-23T01:27:58;101283.00;;;23.60;58.36
10712;BME280;5407;51.234;6.804;2022-07-23T01:30:25;101286.63;;;23.79;57.82
10712;BME280;5407;51.234;6.804;2022-07-23T01:32:53;101287.47;;;23.76;57.77
10712;BME280;5407;51.234;6.804;2022-07-23T01:35:20;101294.91;;;23.79;57.68
10712;BME280;5407;51.234;6.804;2022-07-23T01:37:48;101289.13;;;23.71;57.70
10712;BME280;5407;51.234;6.804;2022-07-23T01:40:18;101286.84;;;23.95;57.72
10712;BME280;5407;51.234;6.804;2022-07-23T01:42:46;101280.88;;;23.97;57.67
10712;BME280;5407;51.234;6.804;2022-07-23T01:45:13;101274.13;;;24.01;57.14
10712;BME280;5407;51.234;6.804;2022-07-23T01:47:45;101275.16;;;23.84;57.20
10712;BME280;5407;51.234;6.804;2022-07-23T01:50:12;101270.78;;;23.90;57.68
10712;BME280;5407;51.234;6.804;2022-07-23T01:53:05;101271.97;;;23.89;57.64
10712;BME280;5407;51.234;6.804;2022-07-23T01:55:36;101266.06;;;23.87;58.04
10712;BME280;5407;51.234;6.804;2022-07-23T01:58:04;101263.78;;;23.82;57.85
10712;BME280;5407;51.234;6.804;2022-07-23T02:00:32;101267.09;;;23.71;58.15
10712;BME280;5407;51.234;6.804;2022-07-23T02:02:59;101269.38;;;23.75;58.43
10712;BME280;5407;51.234;6.804;2022-07-23T02:05:27;101271.72;;;23.77;58.37
10712;BME280;5407;51.234;6.804;2022-07-23T02:07:56;101273.31;;;23.74;58.19
10712;BME280;5407;51.234;6.804;2022-07-23T02:10:23;101272.13;;;23.75;58.32
10712;BME280;5407;51.234;6.804;2022-07-23T02:12:51;101270.50;;;23.81;58.07
10712;BME280;5407;51.234;6.804;2022-07-23T02:15:19;101276.31;;;23.87;57.74
10712;BME280;5407;51.234;6.804;2022-07-23T02:17:46;101266.16;;;24.07;57.23
10712;BME280;5407;51.234;6.804;2022-07-23T02:20:13;101270.06;;;24.09;57.29
10712;BME280;5407;51.234;6.804;2022-07-23T02:22:43;101257.72;;;23.94;57.64
10712;BME280;5407;51.234;6.804;2022-07-23T02:25:09;101259.09;;;24.06;57.41
10712;BME280;5407;51.234;6.804;2022-07-23T02:27:37;101254.72;;;24.08;57.62
10712;BME280;5407;51.234;6.804;2022-07-23T02:30:07;101257.78;;;24.14;57.27
10712;BME280;5407;51.234;6.804;2022-07-23T02:32:35;101249.81;;;24.19;57.28
10712;BME280;5407;51.234;6.804;2022-07-23T02:35:03;101263.47;;;24.26;57.03
10712;BME280;5407;51.234;6.804;2022-07-23T02:37:30;101259.28;;;24.18;57.69
10712;BME280;5407;51.234;6.804;2022-07-23T02:39:58;101260.34;;;24.01;58.19
10712;BME280;5407;51.234;6.804;2022-07-23T02:42:24;101263.59;;;23.96;58.33
10712;BME280;5407;51.234;6.804;2022-07-23T02:44:52;101253.56;;;23.79;58.87
10712;BME280;5407;51.234;6.804;2022-07-23T02:47:20;101260.66;;;23.80;58.81
10712;BME280;5407;51.234;6.804;2022-07-23T02:49:47;101252.13;;;23.98;58.47
10712;BME280;5407;51.234;6.804;2022-07-23T02:52:14;101264.66;;;24.02;57.96
10712;BME280;5407;51.234;6.804;2022-07-23T02:54:42;101267.75;;;23.81;58.30
10712;BME280;5407;51.234;6.804;2022-07-23T02:57:11;101262.00;;;23.69;58.63
10712;BME280;5407;51.234;6.804;2022-07-23T02:59:38;101261.47;;;23.77;58.30
10712;BME280;5407;51.234;6.804;2022-07-23T03:02:04;101268.13;;;23.80;58.66
10712;BME280;5407;51.234;6.804;2022-07-23T03:04:33;101266.25;;;23.73;58.82
10712;BME280;5407;51.234;6.804;2022-07-23T03:07:00;101253.78;;;23.66;58.62
10712;BME280;5407;51.234;6.804;2022-07-23T03:09:27;101253.75;;;23.69;58.22
10712;BME280;5407;51.234;6.804;2022-07-23T03:11:54;101262.00;;;23.69;58.62
10712;BME280;5407;51.234;6.804;2022-07-23T03:14:20;101261.56;;;23.71;58.34
10712;BME280;5407;51.234;6.804;2022-07-23T03:16:49;101259.53;;;23.48;59.12
10712;BME280;5407;51.234;6.804;2022-07-23T03:21:44;101263.38;;;23.54;59.13
10712;BME280;5407;51.234;6.804;2022-07-23T03:24:11;101268.28;;;23.40;59.21
10712;BME280;5407;51.234;6.804;2022-07-23T03:26:38;101267.47;;;23.43;59.06
10712;BME280;5407;51.234;6.804;2022-07-23T03:29:06;101262.88;;;23.33;59.39
10712;BME280;5407;51.234;6.804;2022-07-23T03:31:33;101267.16;;;23.37;59.40
10712;BME280;5407;51.234;6.804;2022-07-23T03:34:00;101267.47;;;23.43;59.29
10712;BME280;5407;51.234;6.804;2022-07-23T03:36:28;101268.16;;;23.50;58.83
10712;BME280;5407;51.234;6.804;2022-07-23T03:38:57;101273.88;;;23.36;59.43
10712;BME280;5407;51.234;6.804;2022-07-23T03:41:24;101262.78;;;23.40;59.20
10712;BME280;5407;51.234;6.804;2022-07-23T03:43:51;101266.38;;;23.67;58.42
10712;BME280;5407;51.234;6.804;2022-07-23T03:46:18;101270.44;;;23.55;58.54
10712;BME280;5407;51.234;6.804;2022-07-23T03:48:45;101267.66;;;23.29;59.06
10712;BME280;5407;51.234;6.804;2022-07-23T03:51:13;101270.03;;;23.27;59.47
10712;BME280;5407;51.234;6.804;2022-07-23T03:53:40;101268.41;;;23.33;59.26
10712;BME280;5407;51.234;6.804;2022-07-23T03:56:08;101264.91;;;23.29;59.21
10712;BME280;5407;51.234;6.804;2022-07-23T03:58:35;101264.03;;;23.35;59.02
10712;BME280;5407;51.234;6.804;2022-07-23T04:01:02;101257.25;;;23.43;58.89
10712;BME280;5407;51.234;6.804;2022-07-23T04:03:29;101255.69;;;23.42;58.85
10712;BME280;5407;51.234;6.804;2022-07-23T04:05:56;101265.72;;;23.26;59.24
10712;BME280;5407;51.234;6.804;2022-07-23T04:08:24;101266.72;;;23.09;59.85
10712;BME280;5407;51.234;6.804;2022-07-23T04:10:52;101274.09;;;23.19;59.58
10712;BME280;5407;51.234;6.804;2022-07-23T04:13:22;101277.53;;;23.26;59.16
10712;BME280;5407;51.234;6.804;2022-07-23T04:18:17;101285.84;;;23.23;59.20
10712;BME280;5407;51.234;6.804;2022-07-23T04:20:52;101287.56;;;23.10;59.81
10712;BME280;5407;51.234;6.804;2022-07-23T04:23:19;101282.22;;;22.92;59.98
10712;BME280;5407;51.234;6.804;2022-07-23T04:25:47;101282.97;;;22.96;60.01
10712;BME280;5407;51.234;6.804;2022-07-23T04:28:14;101271.44;;;22.71;60.85
10712;BME280;5407;51.234;6.804;2022-07-23T04:30:43;101272.69;;;22.67;61.27
10712;BME280;5407;51.234;6.804;2022-07-23T04:33:11;101278.47;;;22.76;60.87
10712;BME280;5407;51.234;6.804;2022-07-23T04:35:39;101283.72;;;23.00;60.13
10712;BME280;5407;51.234;6.804;2022-07-23T04:38:12;101276.56;;;23.10;59.60
10712;BME280;5407;51.234;6.804;2022-07-23T04:40:40;101297.84;;;23.02;59.66
10712;BME280;5407;51.234;6.804;2022-07-23T04:43:07;101296.00;;;22.92;60.39
10712;BME280;5407;51.234;6.804;2022-07-23T04:45:41;101300.19;;;23.04;59.61
10712;BME280;5407;51.234;6.804;2022-07-23T04:48:08;101305.31;;;23.02;59.69
10712;BME280;5407;51.234;6.804;2022-07-23T04:50:35;101301.88;;;22.91;59.88
10712;BME280;5407;51.234;6.804;2022-07-23T04:53:04;101300.19;;;23.04;59.46
10712;BME280;5407;51.234;6.804;2022-07-23T04:55:31;101310.41;;;23.03;59.43
10712;BME280;5407;51.234;6.804;2022-07-23T04:57:58;101318.16;;;23.15;59.06
10712;BME280;5407;51.234;6.804;2022-07-23T05:00:25;101320.97;;;23.12;59.38
10712;BME280;5407;51.234;6.804;2022-07-23T05:02:53;101319.19;;;22.91;60.19
10712;BME280;5407;51.234;6.804;2022-07-23T05:05:20;101324.97;;;23.04;59.63
10712;BME280;5407;51.234;6.804;2022-07-23T05:07:48;101326.47;;;23.12;59.58
10712;BME280;5407;51.234;6.804;2022-07-23T05:10:16;101322.94;;;23.08;59.59
10712;BME280;5407;51.234;6.804;2022-07-23T05:12:43;101319.00;;;23.09;59.50
10712;BME280;5407;51.234;6.804;2022-07-23T05:15:10;101320.28;;;23.01;59.87
10712;BME280;5407;51.234;6.804;2022-07-23T05:17:37;101324.63;;;22.95;60.17
10712;BME280;5407;51.234;6.804;2022-07-23T05:20:13;101327.78;;;22.97;60.25
10712;BME280;5407;51.234;6.804;2022-07-23T05:22:40;101330.22;;;22.88;60.47
10712;BME280;5407;51.234;6.804;2022-07-23T05:25:08;101331.78;;;22.89;60.58
10712;BME280;5407;51.234;6.804;2022-07-23T05:27:35;101339.00;;;22.72;61.25
10712;BME280;5407;51.234;6.804;2022-07-23T05:30:03;101337.28;;;22.89;61.29
10712;BME280;5407;51.234;6.804;2022-07-23T05:32:33;101344.50;;;22.76;61.88
10712;BME280;5407;51.234;6.804;2022-07-23T05:35:12;101343.50;;;22.96;60.82
10712;BME280;5407;51.234;6.804;2022-07-23T05:37:44;101346.25;;;22.96;60.76
10712;BME280;5407;51.234;6.804;2022-07-23T05:40:11;101348.94;;;23.03;60.75
10712;BME280;5407;51.234;6.804;2022-07-23T05:42:39;101349.59;;;23.18;60.11
10712;BME280;5407;51.234;6.804;2022-07-23T05:45:08;101345.88;;;22.98;60.63
10712;BME280;5407;51.234;6.804;2022-07-23T05:47:42;101348.13;;;22.66;61.63
10712;BME280;5407;51.234;6.804;2022-07-23T05:50:13;101346.19;;;22.63;62.13
10712;BME280;5407;51.234;6.804;2022-07-23T05:52:44;101355.47;;;22.79;61.49
10712;BME280;5407;51.234;6.804;2022-07-23T05:55:29;101347.06;;;22.53;62.77
10712;BME280;5407;51.234;6.804;2022-07-23T05:57:58;101349.03;;;22.49;62.92
10712;BME280;5407;51.234;6.804;2022-07-23T06:00:27;101353.03;;;22.88;61.80
10712;BME280;5407;51.234;6.804;2022-07-23T06:02:54;101355.50;;;22.76;62.01
10712;BME280;5407;51.234;6.804;2022-07-23T06:05:23;101354.38;;;22.70;62.38
10712;BME280;5407;51.234;6.804;2022-07-23T06:07:53;101369.06;;;22.97;61.81
10712;BME280;5407;51.234;6.804;2022-07-23T06:10:22;101367.47;;;22.96;61.92
10712;BME280;5407;51.234;6.804;2022-07-23T06:12:49;101372.63;;;22.94;61.65
10712;BME280;5407;51.234;6.804;2022-07-23T06:15:16;101375.75;;;22.96;61.52
10712;BME280;5407;51.234;6.804;2022-07-23T06:17:42;101370.19;;;23.03;61.89
10712;BME280;5407;51.234;6.804;2022-07-23T06:20:10;101368.63;;;23.02;61.33
10712;BME280;5407;51.234;6.804;2022-07-23T06:22:40;101363.63;;;22.90;61.09
10712;BME280;5407;51.234;6.804;2022-07-23T06:25:07;101362.25;;;23.08;60.58
10712;BME280;5407;51.234;6.804;2022-07-23T06:27:34;101364.19;;;23.15;60.36
10712;BME280;5407;51.234;6.804;2022-07-23T06:30:01;101363.44;;;23.11;60.49
10712;BME280;5407;51.234;6.804;2022-07-23T06:32:28;101369.38;;;23.43;59.41
10712;BME280;5407;51.234;6.804;2022-07-23T06:34:55;101368.22;;;23.40;59.35
10712;BME280;5407;51.234;6.804;2022-07-23T06:37:22;101371.75;;;23.41;58.71
10712;BME280;5407;51.234;6.804;2022-07-23T06:39:50;101377.78;;;23.29;59.29
10712;BME280;5407;51.234;6.804;2022-07-23T06:42:17;101379.88;;;23.21;59.33
10712;BME280;5407;51.234;6.804;2022-07-23T06:44:46;101377.75;;;23.32;59.06
10712;BME280;5407;51.234;6.804;2022-07-23T06:47:16;101380.06;;;23.37;58.99
10712;BME280;5407;51.234;6.804;2022-07-23T06:49:43;101385.56;;;23.37;59.34
10712;BME280;5407;51.234;6.804;2022-07-23T06:52:10;101381.56;;;23.05;60.13
10712;BME280;5407;51.234;6.804;2022-07-23T06:54:37;101375.59;;;23.13;60.39
10712;BME280;5407;51.234;6.804;2022-07-23T06:57:05;101378.59;;;23.29;59.61
10712;BME280;5407;51.234;6.804;2022-07-23T06:59:32;101382.41;;;23.39;59.45
10712;BME280;5407;51.234;6.804;2022-07-23T07:02:02;101380.19;;;23.27;60.10
10712;BME280;5407;51.234;6.804;2022-07-23T07:04:29;101382.56;;;23.25;60.11
10712;BME280;5407;51.234;6.804;2022-07-23T07:06:57;101382.94;;;23.27;59.84
10712;BME280;5407;51.234;6.804;2022-07-23T07:09:24;101387.31;;;23.58;59.09
10712;BME280;5407;51.234;6.804;2022-07-23T07:11:51;101391.28;;;23.53;58.05
10712;BME280;5407;51.234;6.804;2022-07-23T07:14:19;101388.31;;;23.71;57.59
10712;BME280;5407;51.234;6.804;2022-07-23T07:16:46;101393.88;;;23.67;58.03
10712;BME280;5407;51.234;6.804;2022-07-23T07:19:13;101399.78;;;23.66;58.23
10712;BME280;5407;51.234;6.804;2022-07-23T07:21:40;101393.91;;;23.64;57.89
10712;BME280;5407;51.234;6.804;2022-07-23T07:24:07;101389.59;;;23.63;57.98
10712;BME280;5407;51.234;6.804;2022-07-23T07:26:34;101391.44;;;23.73;57.73
10712;BME280;5407;51.234;6.804;2022-07-23T07:29:01;101398.34;;;23.87;57.79
10712;BME280;5407;51.234;6.804;2022-07-23T07:31:29;101395.22;;;23.85;57.50
10712;BME280;5407;51.234;6.804;2022-07-23T07:33:56;101397.97;;;23.85;58.03
10712;BME280;5407;51.234;6.804;2022-07-23T07:36:23;101405.19;;;24.06;57.22
10712;BME280;5407;51.234;6.804;2022-07-23T07:38:50;101407.44;;;24.14;57.13
10712;BME280;5407;51.234;6.804;2022-07-23T07:41:17;101415.34;;;24.12;56.99
10712;BME280;5407;51.234;6.804;2022-07-23T07:43:48;101416.69;;;24.27;56.41
10712;BME280;5407;51.234;6.804;2022-07-23T07:46:15;101414.03;;;23.94;57.40
10712;BME280;5407;51.234;6.804;2022-07-23T07:48:43;101415.50;;;24.28;56.47
10712;BME280;5407;51.234;6.804;2022-07-23T07:51:10;101417.78;;;24.33;54.43
10712;BME280;5407;51.234;6.804;2022-07-23T07:53:37;101422.94;;;24.31;55.02
10712;BME280;5407;51.234;6.804;2022-07-23T07:56:05;101428.47;;;24.31;54.34
10712;BME280;5407;51.234;6.804;2022-07-23T07:58:32;101422.19;;;24.31;53.73
10712;BME280;5407;51.234;6.804;2022-07-23T08:00:58;101418.00;;;24.46;54.12
10712;BME280;5407;51.234;6.804;2022-07-23T08:03:26;101423.75;;;24.58;53.81
10712;BME280;5407;51.234;6.804;2022-07-23T08:05:54;101421.97;;;24.71;53.95
10712;BME280;5407;51.234;6.804;2022-07-23T08:08:21;101431.81;;;24.72;52.67
10712;BME280;5407;51.234;6.804;2022-07-23T08:10:48;101431.16;;;24.65;52.81
10712;BME280;5407;51.234;6.804;2022-07-23T08:13:15;101434.19;;;24.70;52.71
10712;BME280;5407;51.234;6.804;2022-07-23T08:15:43;101432.72;;;24.89;51.98
10712;BME280;5407;51.234;6.804;2022-07-23T08:18:10;101436.56;;;24.72;51.64
10712;BME280;5407;51.234;6.804;2022-07-23T08:20:38;101433.72;;;24.75;51.58
10712;BME280;5407;51.234;6.804;2022-07-23T08:23:07;101432.00;;;24.62;51.54
10712;BME280;5407;51.234;6.804;2022-07-23T08:25:36;101430.13;;;24.55;52.73
10712;BME280;5407;51.234;6.804;2022-07-23T08:28:05;101438.47;;;24.75;52.05
10712;BME280;5407;51.234;6.804;2022-07-23T08:30:33;101445.06;;;24.81;51.24
10712;BME280;5407;51.234;6.804;2022-07-23T08:33:02;101446.69;;;24.78;51.12
10712;BME280;5407;51.234;6.804;2022-07-23T08:35:31;101449.59;;;24.94;51.65
10712;BME280;5407;51.234;6.804;2022-07-23T08:37:59;101447.09;;;25.00;51.21
10712;BME280;5407;51.234;6.804;2022-07-23T08:40:30;101449.22;;;24.92;50.01
10712;BME280;5407;51.234;6.804;2022-07-23T08:42:57;101451.13;;;24.72;50.85
10712;BME280;5407;51.234;6.804;2022-07-23T08:45:26;101451.44;;;24.78;50.60
10712;BME280;5407;51.234;6.804;2022-07-23T08:47:55;101454.25;;;24.74;51.10
10712;BME280;5407;51.234;6.804;2022-07-23T08:50:23;101453.91;;;24.95;50.79
10712;BME280;5407;51.234;6.804;2022-07-23T08:52:50;101459.06;;;24.93;50.32
10712;BME280;5407;51.234;6.804;2022-07-23T08:55:19;101459.53;;;25.11;50.66
10712;BME280;5407;51.234;6.804;2022-07-23T08:57:48;101464.34;;;25.07;49.69
10712;BME280;5407;51.234;6.804;2022-07-23T09:00:16;101458.00;;;24.87;49.68
10712;BME280;5407;51.234;6.804;2022-07-23T09:02:44;101458.34;;;24.89;49.46
10712;BME280;5407;51.234;6.804;2022-07-23T09:05:13;101453.78;;;25.02;49.53
10712;BME280;5407;51.234;6.804;2022-07-23T09:08:04;101460.16;;;24.99;49.71
10712;BME280;5407;51.234;6.804;2022-07-23T09:10:43;101461.22;;;25.05;49.12
10712;BME280;5407;51.234;6.804;2022-07-23T09:13:23;101459.31;;;25.25;48.87
10712;BME280;5407;51.234;6.804;2022-07-23T09:15:51;101457.88;;;25.17;49.03
10712;BME280;5407;51.234;6.804;2022-07-23T09:18:18;101459.75;;;25.24;48.89
10712;BME280;5407;51.234;6.804;2022-07-23T09:20:45;101461.44;;;25.18;48.06
10712;BME280;5407;51.234;6.804;2022-07-23T09:23:12;101454.59;;;25.26;48.40
10712;BME280;5407;51.234;6.804;2022-07-23T09:25:39;101454.03;;;25.34;48.39
10712;BME280;5407;51.234;6.804;2022-07-23T09:28:06;101450.56;;;25.30;48.45
10712;BME280;5407;51.234;6.804;2022-07-23T09:30:34;101454.88;;;25.31;48.16
10712;BME280;5407;51.234;6.804;2022-07-23T09:33:09;101455.13;;;25.40;47.93
10712;BME280;5407;51.234;6.804;2022-07-23T09:35:47;101452.13;;;25.31;47.64
10712;BME280;5407;51.234;6.804;2022-07-23T09:38:15;101457.44;;;25.41;47.73
10712;BME280;5407;51.234;6.804;2022-07-23T09:40:43;101473.25;;;25.41;47.48
10712;BME280;5407;51.234;6.804;2022-07-23T09:43:11;101465.44;;;25.36;47.54
10712;BME280;5407;51.234;6.804;2022-07-23T09:45:40;101470.03;;;25.42;46.73
10712;BME280;5407;51.234;6.804;2022-07-23T09:48:11;101463.28;;;25.47;47.78
10712;BME280;5407;51.234;6.804;2022-07-23T09:50:39;101468.13;;;25.39;47.49
10712;BME280;5407;51.234;6.804;2022-07-23T09:53:06;101470.13;;;25.39;47.04
10712;BME280;5407;51.234;6.804;2022-07-23T09:55:35;101472.00;;;25.65;47.31
10712;BME280;5407;51.234;6.804;2022-07-23T09:58:03;101465.19;;;25.50;46.56
10712;BME280;5407;51.234;6.804;2022-07-23T10:00:32;101470.13;;;25.39;46.73
10712;BME280;5407;51.234;6.804;2022-07-23T10:03:01;101474.03;;;25.61;47.34
10712;BME280;5407;51.234;6.804;2022-07-23T10:05:30;101465.19;;;25.50;46.92
10712;BME280;5407;51.234;6.804;2022-07-23T10:08:11;101469.16;;;25.49;46.10
10712;BME280;5407;51.234;6.804;2022-07-23T10:10:57;101473.13;;;25.48;45.78
10712;BME280;5407;51.234;6.804;2022-07-23T10:13:48;101462.72;;;25.55;46.28
10712;BME280;5407;51.234;6.804;2022-07-23T10:16:49;101468.63;;;25.77;44.81
10712;BME280;5407;51.234;6.804;2022-07-23T10:19:18;101452.84;;;25.74;45.03
10712;BME280;5407;51.234;6.804;2022-07-23T10:21:49;101448.75;;;25.82;45.16
10712;BME280;5407;51.234;6.804;2022-07-23T10:24:27;101449.84;;;25.88;45.17
10712;BME280;5407;51.234;6.804;2022-07-23T10:27:04;101451.81;;;25.87;45.19
10712;BME280;5407;51.234;6.804;2022-07-23T10:29:44;101442.41;;;25.85;44.61
10712;BME280;5407;51.234;6.804;2022-07-23T10:32:20;101443.53;;;25.87;44.16
10712;BME280;5407;51.234;6.804;2022-07-23T10:34:57;101443.59;;;26.03;45.13
10712;BME280;5407;51.234;6.804;2022-07-23T10:37:30;101444.06;;;26.18;44.92
10712;BME280;5407;51.234;6.804;2022-07-23T10:40:09;101440.44;;;26.21;44.68
10712;BME280;5407;51.234;6.804;2022-07-23T10:42:36;101442.34;;;26.24;44.80
10712;BME280;5407;51.234;6.804;2022-07-23T10:45:21;101444.28;;;26.27;44.10
10712;BME280;5407;51.234;6.804;2022-07-23T10:47:49;101441.00;;;26.32;44.34
10712;BME280;5407;51.234;6.804;2022-07-23T10:50:23;101438.91;;;26.36;43.62
10712;BME280;5407;51.234;6.804;2022-07-23T10:53:09;101430.16;;;26.37;43.43
10712;BME280;5407;51.234;6.804;2022-07-23T10:55:41;101435.63;;;26.41;43.15
10712;BME280;5407;51.234;6.804;2022-07-23T10:58:08;101434.72;;;26.47;43.00
10712;BME280;5407;51.234;6.804;2022-07-23T11:00:36;101433.94;;;26.47;43.52
10712;BME280;5407;51.234;6.804;2022-07-23T11:03:04;101435.97;;;26.43;42.91
10712;BME280;5407;51.234;6.804;2022-07-23T11:05:44;101435.50;;;26.48;43.00
10712;BME280;5407;51.234;6.804;2022-07-23T11:08:14;101429.91;;;26.51;43.31
10712;BME280;5407;51.234;6.804;2022-07-23T11:10:44;101430.59;;;26.55;43.44
10712;BME280;5407;51.234;6.804;2022-07-23T11:13:37;101430.47;;;26.59;43.25
10712;BME280;5407;51.234;6.804;2022-07-23T11:16:06;101434.75;;;26.63;42.29
10712;BME280;5407;51.234;6.804;2022-07-23T11:19:07;101440.69;;;26.62;42.13
10712;BME280;5407;51.234;6.804;2022-07-23T11:21:48;101437.06;;;26.65;42.70
10712;BME280;5407;51.234;6.804;2022-07-23T11:24:17;101445.22;;;26.72;41.87
10712;BME280;5407;51.234;6.804;2022-07-23T11:26:48;101438.81;;;26.75;42.00
10712;BME280;5407;51.234;6.804;2022-07-23T11:29:41;101440.38;;;26.76;42.35
10712;BME280;5407;51.234;6.804;2022-07-23T11:35:01;101449.25;;;26.83;42.15
10712;BME280;5407;51.234;6.804;2022-07-23T11:37:36;101449.47;;;26.92;41.27
10712;BME280;5407;51.234;6.804;2022-07-23T11:40:08;101436.53;;;27.01;41.58
10712;BME280;5407;51.234;6.804;2022-07-23T11:42:37;101435.16;;;27.09;41.49
10712;BME280;5407;51.234;6.804;2022-07-23T11:45:06;101439.13;;;27.24;41.33
10712;BME280;5407;51.234;6.804;2022-07-23T11:47:34;101435.63;;;27.36;41.08
10712;BME280;5407;51.234;6.804;2022-07-23T11:50:04;101437.78;;;27.45;42.11
10712;BME280;5407;51.234;6.804;2022-07-23T11:52:33;101431.94;;;27.55;42.59
10712;BME280;5407;51.234;6.804;2022-07-23T11:55:02;101430.00;;;27.68;42.25
10712;BME280;5407;51.234;6.804;2022-07-23T11:57:31;101435.38;;;27.75;42.01
10712;BME280;5407;51.234;6.804;2022-07-23T12:00:03;101441.38;;;27.86;42.32
10712;BME280;5407;51.234;6.804;2022-07-23T12:02:37;101437.16;;;27.94;41.96
10712;BME280;5407;51.234;6.804;2022-07-23T12:05:05;101435.75;;;28.02;41.97
10712;BME280;5407;51.234;6.804;2022-07-23T12:07:37;101442.41;;;28.05;41.55
10712;BME280;5407;51.234;6.804;2022-07-23T12:10:10;101433.75;;;28.03;41.16
10712;BME280;5407;51.234;6.804;2022-07-23T12:12:38;101438.78;;;28.45;40.74
10712;BME280;5407;51.234;6.804;2022-07-23T12:15:06;101432.47;;;28.32;39.72
10712;BME280;5407;51.234;6.804;2022-07-23T12:17:35;101434.78;;;28.21;40.78
10712;BME280;5407;51.234;6.804;2022-07-23T12:20:06;101431.66;;;28.19;40.73
10712;BME280;5407;51.234;6.804;2022-07-23T12:22:37;101443.31;;;28.14;40.90
10712;BME280;5407;51.234;6.804;2022-07-23T12:25:07;101433.75;;;28.28;40.39
10712;BME280;5407;51.234;6.804;2022-07-23T12:27:34;101440.47;;;28.30;40.78
10712;BME280;5407;51.234;6.804;2022-07-23T12:30:21;101447.25;;;28.29;40.46
10712;BME280;5407;51.234;6.804;2022-07-23T12:32:50;101429.69;;;28.32;40.73
10712;BME280;5407;51.234;6.804;2022-07-23T12:35:18;101435.91;;;28.36;40.25
10712;BME280;5407;51.234;6.804;2022-07-23T12:37:49;101435.47;;;28.50;40.11
10712;BME280;5407;51.234;6.804;2022-07-23T12:40:29;101449.16;;;29.16;39.08
10712;BME280;5407;51.234;6.804;2022-07-23T12:42:57;101451.53;;;29.39;38.25
10712;BME280;5407;51.234;6.804;2022-07-23T12:45:26;101439.69;;;29.26;38.24
10712;BME280;5407;51.234;6.804;2022-07-23T12:48:04;101441.91;;;29.18;38.52
10712;BME280;5407;51.234;6.804;2022-07-23T12:50:42;101441.22;;;28.93;38.79
10712;BME280;5407;51.234;6.804;2022-07-23T12:53:12;101451.47;;;29.17;39.23
10712;BME280;5407;51.234;6.804;2022-07-23T12:55:42;101452.03;;;29.25;39.55
10712;BME280;5407;51.234;6.804;2022-07-23T12:58:11;101447.38;;;29.22;39.87
10712;BME280;5407;51.234;6.804;2022-07-23T13:00:57;101445.16;;;29.17;40.01
10712;BME280;5407;51.234;6.804;2022-07-23T13:03:27;101452.19;;;29.09;40.45
10712;BME280;5407;51.234;6.804;2022-07-23T13:05:54;101447.66;;;29.02;40.88
10712;BME280;5407;51.234;6.804;2022-07-23T13:08:23;101450.88;;;29.01;41.40
10712;BME280;5407;51.234;6.804;2022-07-23T13:10:51;101458.50;;;29.09;41.75
10712;BME280;5407;51.234;6.804;2022-07-23T13:13:21;101458.97;;;29.08;41.35
10712;BME280;5407;51.234;6.804;2022-07-23T13:15:48;101457.44;;;29.07;41.10
10712;BME280;5407;51.234;6.804;2022-07-23T13:18:16;101458.97;;;29.08;40.91
10712;BME280;5407;51.234;6.804;2022-07-23T13:20:43;101458.97;;;29.08;40.84